Time;durP1;ratioP1;P1;durP2;ratioP2;P2;SDS_P1;SDS_P2;PMS_P1;PMS_P2;Temp;Humidity;BMP_temperature;BMP_pressure;BME280_temperature;BME280_humidity;BME280_pressure;Samples;Min_cycle;Max_cycle;Signal;HPM_P1;HPM_P2
2023/06/10 00:02:21;;;;;;;7.63;4.43;;;;;;;;;;5011800;28;20288;-71
2023/06/10 00:04:47;;;;;;;6.85;4.43;;;;;;;;;;5023335;28;20232;-71
2023/06/10 00:07:12;;;;;;;6.82;4.78;;;;;;;;;;5040285;28;20287;-71
2023/06/10 00:09:38;;;;;;;7.78;4.97;;;;;;;;;;5022083;28;20269;-71
2023/06/10 00:12:09;;;;;;;8.55;5.10;;;;;;;;;;5028808;28;20273;-71
2023/06/10 00:14:37;;;;;;;13.57;5.10;;;;;;;;;;5021656;28;20190;-71
2023/06/10 00:17:02;;;;;;;10.13;4.63;;;;;;;;;;5025714;28;20611;-71
2023/06/10 00:19:29;;;;;;;10.45;4.80;;;;;;;;;;5023978;28;20191;-71
2023/06/10 00:21:56;;;;;;;8.68;4.68;;;;;;;;;;5009380;28;20576;-71
2023/06/10 00:24:22;;;;;;;11.40;4.68;;;;;;;;;;5009699;28;20206;-71
2023/06/10 00:26:47;;;;;;;8.15;5.03;;;;;;;;;;5028630;28;20248;-71
2023/06/10 00:29:14;;;;;;;6.82;4.18;;;;;;;;;;5020372;28;20692;-71
2023/06/10 00:31:39;;;;;;;11.25;4.95;;;;;;;;;;5026537;28;20212;-71
2023/06/10 00:34:05;;;;;;;9.30;4.82;;;;;;;;;;5024112;28;20642;-71
2023/06/10 00:36:30;;;;;;;10.63;4.68;;;;;;;;;;5026067;28;20182;-71
2023/06/10 00:38:56;;;;;;;7.38;4.72;;;;;;;;;;5028633;28;20186;-71
2023/06/10 00:41:22;;;;;;;13.77;5.32;;;;;;;;;;5032752;28;20234;-71
2023/06/10 00:43:47;;;;;;;10.05;4.97;;;;;;;;;;5035016;28;20709;-71
2023/06/10 00:46:13;;;;;;;8.32;5.00;;;;;;;;;;5028463;28;20216;-71
2023/06/10 00:48:40;;;;;;;11.00;5.00;;;;;;;;;;5018995;28;20194;-71
2023/06/10 00:51:06;;;;;;;10.32;5.45;;;;;;;;;;5027490;28;20213;-71
2023/06/10 00:53:32;;;;;;;9.88;5.38;;;;;;;;;;5028160;28;20620;-72
2023/06/10 00:55:58;;;;;;;8.13;4.65;;;;;;;;;;5018581;28;20681;-72
2023/06/10 00:58:25;;;;;;;9.43;4.68;;;;;;;;;;5027172;28;20190;-70
2023/06/10 01:00:51;;;;;;;9.55;4.72;;;;;;;;;;5027234;28;20704;-70
2023/06/10 01:03:17;;;;;;;8.32;5.18;;;;;;;;;;5014945;28;20213;-71
2023/06/10 01:05:42;;;;;;;9.60;5.00;;;;;;;;;;5015003;28;20259;-70
2023/06/10 01:08:25;;;;;;;11.50;4.65;;;;;;;;;;5030023;28;20204;-70
2023/06/10 01:10:57;;;;;;;10.13;5.20;;;;;;;;;;5029687;28;20194;-70
2023/06/10 01:13:23;;;;;;;6.82;4.47;;;;;;;;;;5038104;28;20202;-70
2023/06/10 01:15:51;;;;;;;10.05;5.57;;;;;;;;;;5040171;28;20193;-70
2023/06/10 01:18:16;;;;;;;10.27;5.20;;;;;;;;;;5037208;28;20182;-70
2023/06/10 01:20:44;;;;;;;11.68;5.05;;;;;;;;;;5015170;28;20195;-71
2023/06/10 01:23:12;;;;;;;12.65;4.75;;;;;;;;;;5026884;28;20256;-71
2023/06/10 01:25:45;;;;;;;10.07;4.63;;;;;;;;;;5027697;28;20193;-71
2023/06/10 01:28:16;;;;;;;10.63;5.38;;;;;;;;;;5040894;28;20308;-71
2023/06/10 01:31:00;;;;;;;7.57;5.00;;;;;;;;;;5028122;28;20263;-71
2023/06/10 01:33:29;;;;;;;7.85;4.75;;;;;;;;;;5022986;28;20259;-71
2023/06/10 01:35:57;;;;;;;8.65;5.53;;;;;;;;;;5027714;28;20193;-71
2023/06/10 01:38:25;;;;;;;8.95;5.20;;;;;;;;;;5009279;28;20190;-71
2023/06/10 01:40:53;;;;;;;9.32;4.93;;;;;;;;;;5032406;28;20218;-71
2023/06/10 01:43:20;;;;;;;10.30;5.30;;;;;;;;;;5023243;28;20189;-71
2023/06/10 01:45:45;;;;;;;9.70;5.32;;;;;;;;;;5024825;28;20599;-71
2023/06/10 01:48:11;;;;;;;10.30;4.95;;;;;;;;;;5027489;28;20799;-71
2023/06/10 01:50:36;;;;;;;8.07;5.25;;;;;;;;;;5025022;28;20191;-72
2023/06/10 01:53:03;;;;;;;10.70;5.70;;;;;;;;;;5020667;28;20639;-71
2023/06/10 01:55:28;;;;;;;10.98;5.30;;;;;;;;;;5033158;28;20593;-71
2023/06/10 01:57:54;;;;;;;12.10;5.15;;;;;;;;;;5030658;28;20389;-72
2023/06/10 02:00:19;;;;;;;10.73;5.63;;;;;;;;;;5024234;28;20539;-71
2023/06/10 02:02:44;;;;;;;8.27;5.25;;;;;;;;;;5022625;28;20182;-71
2023/06/10 02:05:10;;;;;;;10.05;5.20;;;;;;;;;;5028169;28;20213;-71
2023/06/10 02:07:35;;;;;;;8.23;5.28;;;;;;;;;;5027742;28;20737;-71
2023/06/10 02:10:00;;;;;;;8.25;5.40;;;;;;;;;;5026705;28;20206;-71
2023/06/10 02:12:26;;;;;;;11.75;6.07;;;;;;;;;;5011138;28;20334;-71
2023/06/10 02:14:52;;;;;;;8.98;5.22;;;;;;;;;;5025640;28;20588;-71
2023/06/10 02:17:17;;;;;;;12.43;5.38;;;;;;;;;;5026723;28;20190;-71
2023/06/10 02:19:43;;;;;;;8.30;5.35;;;;;;;;;;5022794;28;20320;-71
2023/06/10 02:22:09;;;;;;;7.80;5.50;;;;;;;;;;5022034;28;20240;-71
2023/06/10 02:24:37;;;;;;;8.48;5.32;;;;;;;;;;5024121;28;20214;-71
2023/06/10 02:27:06;;;;;;;9.73;5.53;;;;;;;;;;5027166;28;20201;-71
2023/06/10 02:29:33;;;;;;;16.75;5.32;;;;;;;;;;5015863;28;20195;-71
2023/06/10 02:31:59;;;;;;;8.27;5.32;;;;;;;;;;5027319;28;20221;-71
2023/06/10 02:34:24;;;;;;;11.30;6.00;;;;;;;;;;5025020;28;20213;-72
2023/06/10 02:36:51;;;;;;;9.05;5.22;;;;;;;;;;5021016;28;20191;-71
2023/06/10 02:39:16;;;;;;;9.18;5.78;;;;;;;;;;5019228;28;20185;-71
2023/06/10 02:41:42;;;;;;;9.45;5.80;;;;;;;;;;5010648;28;20233;-71
2023/06/10 02:44:07;;;;;;;11.48;5.53;;;;;;;;;;5026649;28;20253;-71
2023/06/10 02:46:32;;;;;;;11.82;5.95;;;;;;;;;;5031310;28;20194;-71
2023/06/10 02:48:58;;;;;;;11.13;5.90;;;;;;;;;;5039381;28;20194;-71
2023/06/10 02:51:23;;;;;;;12.60;6.05;;;;;;;;;;5021738;28;20198;-71
2023/06/10 02:53:48;;;;;;;11.07;6.03;;;;;;;;;;5011197;28;20186;-71
2023/06/10 02:56:16;;;;;;;10.00;6.07;;;;;;;;;;5024873;28;20318;-72
2023/06/10 02:58:42;;;;;;;12.05;6.15;;;;;;;;;;5031175;28;20283;-72
2023/06/10 03:01:09;;;;;;;10.07;6.07;;;;;;;;;;5045509;28;20205;-72
2023/06/10 03:03:36;;;;;;;11.07;5.80;;;;;;;;;;5034290;28;20249;-71
2023/06/10 03:06:02;;;;;;;9.10;5.40;;;;;;;;;;5030912;28;20190;-71
2023/06/10 03:08:28;;;;;;;12.98;5.82;;;;;;;;;;5042196;28;20627;-71
2023/06/10 03:10:53;;;;;;;12.85;5.38;;;;;;;;;;5029667;28;20272;-71
2023/06/10 03:13:19;;;;;;;10.57;5.78;;;;;;;;;;5037344;28;20198;-71
2023/06/10 03:15:45;;;;;;;9.80;5.53;;;;;;;;;;5033829;28;20275;-72
2023/06/10 03:18:11;;;;;;;11.43;5.93;;;;;;;;;;5027318;28;20195;-71
2023/06/10 03:20:37;;;;;;;12.02;5.68;;;;;;;;;;5031793;28;20676;-72
2023/06/10 03:23:03;;;;;;;9.77;5.70;;;;;;;;;;5028602;28;20198;-72
2023/06/10 03:25:30;;;;;;;8.23;5.68;;;;;;;;;;5043971;28;20241;-72
2023/06/10 03:27:56;;;;;;;8.40;5.55;;;;;;;;;;5026881;28;20204;-72
2023/06/10 03:30:21;;;;;;;10.27;5.18;;;;;;;;;;5028525;28;20210;-72
2023/06/10 03:32:46;;;;;;;8.90;5.07;;;;;;;;;;5041402;28;20274;-72
2023/06/10 03:35:12;;;;;;;11.68;6.13;;;;;;;;;;5022259;28;20661;-72
2023/06/10 03:37:37;;;;;;;10.77;6.10;;;;;;;;;;5027407;28;20216;-71
2023/06/10 03:40:03;;;;;;;12.23;5.95;;;;;;;;;;5030445;28;20222;-72
2023/06/10 03:42:29;;;;;;;10.30;5.70;;;;;;;;;;5029333;28;20511;-72
2023/06/10 03:44:54;;;;;;;11.52;6.28;;;;;;;;;;5033887;28;20205;-72
2023/06/10 03:47:20;;;;;;;13.15;5.80;;;;;;;;;;5045086;28;20186;-71
2023/06/10 03:49:46;;;;;;;15.50;6.18;;;;;;;;;;5036357;28;20182;-71
2023/06/10 03:52:11;;;;;;;10.95;5.95;;;;;;;;;;5037145;28;20304;-72
2023/06/10 03:54:37;;;;;;;12.23;5.90;;;;;;;;;;5040076;28;20269;-72
2023/06/10 03:57:03;;;;;;;10.30;5.88;;;;;;;;;;5028838;28;20194;-71
2023/06/10 03:59:28;;;;;;;10.23;6.10;;;;;;;;;;5035626;28;20625;-72
2023/06/10 04:01:54;;;;;;;10.70;5.90;;;;;;;;;;5028445;28;20612;-72
2023/06/10 04:04:19;;;;;;;9.75;5.57;;;;;;;;;;5026814;28;20232;-72
2023/06/10 04:06:45;;;;;;;10.30;5.50;;;;;;;;;;5027385;28;20190;-71
2023/06/10 04:09:11;;;;;;;9.35;5.90;;;;;;;;;;5043498;28;20221;-71
2023/06/10 04:11:36;;;;;;;8.68;5.47;;;;;;;;;;5031031;28;20218;-71
2023/06/10 04:14:02;;;;;;;11.88;6.47;;;;;;;;;;5028396;28;20221;-71
2023/06/10 04:16:28;;;;;;;9.15;5.50;;;;;;;;;;5020302;28;20274;-72
2023/06/10 04:18:53;;;;;;;9.05;6.13;;;;;;;;;;5026112;28;20206;-71
2023/06/10 04:21:19;;;;;;;10.02;6.00;;;;;;;;;;5031457;28;20334;-71
2023/06/10 04:23:44;;;;;;;12.98;6.18;;;;;;;;;;5033082;28;20244;-71
2023/06/10 04:26:12;;;;;;;10.35;5.65;;;;;;;;;;5020940;28;20201;-70
2023/06/10 04:28:37;;;;;;;12.05;6.18;;;;;;;;;;5009622;28;20191;-70
2023/06/10 04:31:04;;;;;;;9.43;5.72;;;;;;;;;;5012745;28;20221;-71
2023/06/10 04:33:30;;;;;;;11.80;5.60;;;;;;;;;;5028450;28;20286;-70
2023/06/10 04:35:55;;;;;;;11.68;5.90;;;;;;;;;;5024898;28;20197;-71
2023/06/10 04:38:21;;;;;;;9.82;5.75;;;;;;;;;;5031819;28;20198;-71
2023/06/10 04:40:46;;;;;;;13.10;5.88;;;;;;;;;;5023679;28;20284;-71
2023/06/10 04:43:12;;;;;;;12.50;5.80;;;;;;;;;;5024056;28;20403;-70
2023/06/10 04:45:38;;;;;;;15.40;5.53;;;;;;;;;;5020371;28;20218;-71
2023/06/10 04:48:05;;;;;;;12.85;5.72;;;;;;;;;;5028142;28;20236;-71
2023/06/10 04:50:32;;;;;;;10.70;5.93;;;;;;;;;;5026899;28;20733;-71
2023/06/10 04:52:58;;;;;;;9.50;5.45;;;;;;;;;;5024435;28;20196;-71
2023/06/10 04:55:23;;;;;;;11.93;6.13;;;;;;;;;;5026890;28;20273;-71
2023/06/10 04:57:50;;;;;;;9.40;5.65;;;;;;;;;;5034709;28;20212;-71
2023/06/10 05:00:15;;;;;;;12.15;6.97;;;;;;;;;;5025307;28;20193;-72
2023/06/10 05:02:41;;;;;;;13.10;6.38;;;;;;;;;;5024760;28;20190;-72
2023/06/10 05:05:06;;;;;;;12.55;5.57;;;;;;;;;;5020218;28;20254;-72
2023/06/10 05:07:32;;;;;;;10.15;5.93;;;;;;;;;;5020470;28;20198;-71
2023/06/10 05:09:57;;;;;;;12.85;6.30;;;;;;;;;;5021405;28;20206;-71
2023/06/10 05:12:22;;;;;;;12.40;6.03;;;;;;;;;;5026092;28;20194;-71
2023/06/10 05:14:48;;;;;;;12.60;5.75;;;;;;;;;;5019685;28;20574;-71
2023/06/10 05:17:13;;;;;;;11.32;6.55;;;;;;;;;;5024536;28;20226;-71
2023/06/10 05:19:39;;;;;;;12.57;5.38;;;;;;;;;;5024199;28;20194;-71
2023/06/10 05:22:04;;;;;;;13.35;6.20;;;;;;;;;;5022870;28;20218;-71
2023/06/10 05:24:30;;;;;;;10.43;5.78;;;;;;;;;;5013569;28;20210;-70
2023/06/10 05:26:55;;;;;;;11.55;5.40;;;;;;;;;;5034191;28;20193;-71
2023/06/10 05:29:20;;;;;;;12.10;5.80;;;;;;;;;;5026953;28;20256;-70
2023/06/10 05:31:46;;;;;;;9.20;6.00;;;;;;;;;;5021198;28;20194;-70
2023/06/10 05:34:11;;;;;;;11.82;5.97;;;;;;;;;;5029164;28;20553;-71
2023/06/10 05:36:37;;;;;;;12.63;6.22;;;;;;;;;;5026566;28;20198;-70
2023/06/10 05:39:02;;;;;;;9.90;5.80;;;;;;;;;;5027677;28;20192;-71
2023/06/10 05:41:28;;;;;;;12.80;5.80;;;;;;;;;;5024750;28;20954;-70
2023/06/10 05:43:53;;;;;;;8.82;5.47;;;;;;;;;;5026355;28;20214;-71
2023/06/10 05:46:19;;;;;;;8.35;6.00;;;;;;;;;;5030321;28;20192;-72
2023/06/10 05:48:45;;;;;;;12.68;5.60;;;;;;;;;;5029038;28;20564;-71
2023/06/10 05:51:10;;;;;;;11.05;5.78;;;;;;;;;;5024838;28;20206;-70
2023/06/10 05:53:35;;;;;;;11.32;5.93;;;;;;;;;;5016696;28;20235;-70
2023/06/10 05:56:01;;;;;;;11.85;5.65;;;;;;;;;;5020337;28;20191;-70
2023/06/10 05:58:26;;;;;;;13.82;6.78;;;;;;;;;;5025340;28;20239;-71
2023/06/10 06:00:52;;;;;;;8.30;5.60;;;;;;;;;;5035747;28;20222;-71
2023/06/10 06:03:17;;;;;;;11.45;6.07;;;;;;;;;;5021531;28;20451;-71
2023/06/10 06:05:42;;;;;;;11.35;5.80;;;;;;;;;;5025094;28;20510;-71
2023/06/10 06:08:09;;;;;;;8.20;5.60;;;;;;;;;;5027528;28;20197;-70
2023/06/10 06:10:34;;;;;;;9.27;6.03;;;;;;;;;;5028717;28;20602;-72
2023/06/10 06:13:00;;;;;;;9.15;5.75;;;;;;;;;;5029487;28;20194;-71
2023/06/10 06:15:26;;;;;;;13.65;6.28;;;;;;;;;;5030625;28;20665;-71
2023/06/10 06:17:55;;;;;;;9.32;5.63;;;;;;;;;;5028770;28;20669;-72
2023/06/10 06:20:22;;;;;;;16.33;6.13;;;;;;;;;;5028644;28;20178;-71
2023/06/10 06:22:47;;;;;;;13.45;6.10;;;;;;;;;;5028595;28;20625;-72
2023/06/10 06:25:13;;;;;;;12.55;6.60;;;;;;;;;;5028414;28;20259;-71
2023/06/10 06:27:38;;;;;;;14.27;5.75;;;;;;;;;;5015754;28;20182;-71
2023/06/10 06:30:04;;;;;;;15.13;6.18;;;;;;;;;;5021811;28;20194;-71
2023/06/10 06:32:30;;;;;;;14.73;5.95;;;;;;;;;;5017639;28;20190;-72
2023/06/10 06:34:55;;;;;;;7.35;5.38;;;;;;;;;;5023839;28;20209;-72
2023/06/10 06:37:24;;;;;;;9.35;5.68;;;;;;;;;;5027257;28;20194;-71
2023/06/10 06:39:53;;;;;;;11.88;5.47;;;;;;;;;;5026110;28;20226;-72
2023/06/10 06:42:20;;;;;;;10.63;5.60;;;;;;;;;;5024302;28;20197;-72
2023/06/10 06:44:46;;;;;;;10.25;5.43;;;;;;;;;;5025652;28;20214;-72
2023/06/10 06:47:12;;;;;;;9.70;5.53;;;;;;;;;;5023020;28;20206;-72
2023/06/10 06:49:37;;;;;;;9.57;5.15;;;;;;;;;;5028671;28;20197;-72
2023/06/10 06:52:03;;;;;;;11.48;5.82;;;;;;;;;;5018265;28;20273;-72
2023/06/10 06:54:29;;;;;;;9.10;5.07;;;;;;;;;;5020489;28;20615;-72
2023/06/10 06:56:54;;;;;;;11.18;5.72;;;;;;;;;;5025021;28;20196;-71
2023/06/10 06:59:20;;;;;;;8.68;5.40;;;;;;;;;;5034706;28;20202;-71
2023/06/10 07:01:46;;;;;;;7.93;5.32;;;;;;;;;;5030115;28;20273;-72
2023/06/10 07:04:11;;;;;;;10.27;5.75;;;;;;;;;;5031416;28;20216;-72
2023/06/10 07:06:37;;;;;;;9.60;5.80;;;;;;;;;;5018104;28;20194;-72
2023/06/10 07:09:03;;;;;;;9.02;5.15;;;;;;;;;;5017944;28;20558;-71
2023/06/10 07:11:29;;;;;;;12.07;5.68;;;;;;;;;;5029378;28;20198;-72
2023/06/10 07:13:54;;;;;;;7.03;5.13;;;;;;;;;;5034465;28;20205;-72
2023/06/10 07:16:21;;;;;;;12.38;5.38;;;;;;;;;;5024089;28;20732;-71
2023/06/10 07:18:46;;;;;;;10.60;5.95;;;;;;;;;;5023824;28;20273;-72
2023/06/10 07:21:12;;;;;;;8.55;5.80;;;;;;;;;;5044180;28;20286;-71
2023/06/10 07:23:37;;;;;;;11.55;5.47;;;;;;;;;;5029269;28;20225;-71
2023/06/10 07:26:02;;;;;;;8.98;4.82;;;;;;;;;;5029934;28;20193;-71
2023/06/10 07:28:28;;;;;;;9.82;5.18;;;;;;;;;;5021105;28;20190;-71
2023/06/10 07:30:53;;;;;;;12.20;5.30;;;;;;;;;;5027565;28;20209;-71
2023/06/10 07:33:18;;;;;;;8.88;5.05;;;;;;;;;;5020712;28;20245;-71
2023/06/10 07:35:44;;;;;;;11.15;5.03;;;;;;;;;;5014465;28;20229;-71
2023/06/10 07:38:09;;;;;;;10.65;5.80;;;;;;;;;;5025736;28;20205;-71
2023/06/10 07:40:35;;;;;;;11.35;5.72;;;;;;;;;;5021388;28;20233;-71
2023/06/10 07:43:00;;;;;;;11.68;5.10;;;;;;;;;;5032831;28;20238;-71
2023/06/10 07:45:25;;;;;;;9.23;5.32;;;;;;;;;;5020486;28;20820;-70
2023/06/10 07:47:51;;;;;;;10.65;4.95;;;;;;;;;;5025241;28;20189;-70
2023/06/10 07:50:16;;;;;;;12.55;5.70;;;;;;;;;;5038928;28;20194;-71
2023/06/10 07:52:42;;;;;;;10.77;5.35;;;;;;;;;;5038674;28;20189;-72
2023/06/10 07:55:07;;;;;;;11.02;5.10;;;;;;;;;;5033026;28;20213;-71
2023/06/10 07:57:36;;;;;;;7.43;5.03;;;;;;;;;;5030447;28;20195;-71
2023/06/10 08:00:04;;;;;;;9.13;4.70;;;;;;;;;;5036421;28;20198;-71
2023/06/10 08:02:29;;;;;;;8.85;5.20;;;;;;;;;;5031965;28;20189;-72
2023/06/10 08:04:55;;;;;;;9.60;4.43;;;;;;;;;;5024785;28;20633;-71
2023/06/10 08:07:20;;;;;;;9.35;4.68;;;;;;;;;;5040657;28;20269;-71
2023/06/10 08:09:45;;;;;;;8.98;4.90;;;;;;;;;;5028098;28;20277;-72
2023/06/10 08:12:11;;;;;;;16.48;5.63;;;;;;;;;;5025417;28;20198;-71
2023/06/10 08:14:36;;;;;;;11.38;4.45;;;;;;;;;;5027057;28;20213;-71
2023/06/10 08:17:04;;;;;;;7.05;4.78;;;;;;;;;;5028078;28;20190;-71
2023/06/10 08:19:30;;;;;;;10.68;4.43;;;;;;;;;;5032708;28;20193;-71
2023/06/10 08:21:56;;;;;;;9.88;5.13;;;;;;;;;;5034574;28;20190;-70
2023/06/10 08:24:21;;;;;;;11.10;5.13;;;;;;;;;;5034090;28;20217;-70
2023/06/10 08:26:46;;;;;;;10.85;4.53;;;;;;;;;;5006399;28;20189;-71
2023/06/10 08:29:12;;;;;;;7.55;4.10;;;;;;;;;;5025182;28;20226;-71
2023/06/10 08:31:41;;;;;;;8.02;4.53;;;;;;;;;;5021116;28;20653;-71
2023/06/10 08:34:07;;;;;;;7.40;4.93;;;;;;;;;;5012219;28;20187;-71
2023/06/10 08:36:32;;;;;;;8.77;4.60;;;;;;;;;;5025453;28;20557;-71
2023/06/10 08:38:57;;;;;;;10.23;5.25;;;;;;;;;;5016158;28;20195;-71
2023/06/10 08:41:28;;;;;;;7.65;5.10;;;;;;;;;;5023084;28;20241;-71
2023/06/10 08:44:18;;;;;;;14.52;4.93;;;;;;;;;;5026935;28;20217;-71
2023/06/10 08:46:45;;;;;;;13.50;4.80;;;;;;;;;;5016255;28;20240;-72
2023/06/10 08:49:15;;;;;;;7.93;4.20;;;;;;;;;;5022460;28;20205;-71
2023/06/10 08:51:41;;;;;;;7.68;4.50;;;;;;;;;;5026115;28;20187;-71
2023/06/10 08:54:18;;;;;;;12.23;4.60;;;;;;;;;;5017644;28;20748;-72
2023/06/10 08:56:47;;;;;;;8.40;4.38;;;;;;;;;;5024377;28;20203;-71
2023/06/10 08:59:13;;;;;;;8.88;4.80;;;;;;;;;;5044926;28;20217;-70
2023/06/10 09:01:39;;;;;;;10.27;4.60;;;;;;;;;;5019019;28;20249;-70
2023/06/10 09:04:04;;;;;;;12.48;4.90;;;;;;;;;;5024672;28;20723;-70
2023/06/10 09:06:32;;;;;;;8.93;4.80;;;;;;;;;;5030083;28;20189;-69
2023/06/10 09:08:58;;;;;;;5.95;4.20;;;;;;;;;;5031023;28;20194;-70
2023/06/10 09:11:25;;;;;;;6.53;4.68;;;;;;;;;;5026732;28;20186;-71
2023/06/10 09:13:51;;;;;;;8.82;4.63;;;;;;;;;;5023316;28;20313;-69
2023/06/10 09:16:16;;;;;;;8.80;4.15;;;;;;;;;;4332420;28;10000227;-70
2023/06/10 09:18:42;;;;;;;11.52;4.50;;;;;;;;;;5017354;28;20198;-70
2023/06/10 09:21:08;;;;;;;11.07;4.80;;;;;;;;;;5022630;28;20291;-71
2023/06/10 09:23:33;;;;;;;8.07;4.97;;;;;;;;;;5022727;28;20265;-70
2023/06/10 09:25:59;;;;;;;8.40;4.70;;;;;;;;;;5021725;28;20240;-70
2023/06/10 09:28:24;;;;;;;8.70;4.65;;;;;;;;;;5025084;28;20198;-71
2023/06/10 09:31:02;;;;;;;7.97;4.40;;;;;;;;;;5026311;28;20764;-71
2023/06/10 09:33:28;;;;;;;7.90;4.18;;;;;;;;;;5029269;28;20281;-70
2023/06/10 09:35:55;;;;;;;7.10;3.90;;;;;;;;;;5035562;28;20732;-70
2023/06/10 09:38:22;;;;;;;7.15;4.25;;;;;;;;;;5022996;28;20235;-70
2023/06/10 09:40:50;;;;;;;8.82;4.63;;;;;;;;;;5027505;28;20238;-69
2023/06/10 09:43:15;;;;;;;11.75;4.53;;;;;;;;;;5023062;28;20301;-72
2023/06/10 09:45:43;;;;;;;8.32;4.38;;;;;;;;;;5025182;28;20653;-70
2023/06/10 09:48:08;;;;;;;9.35;4.57;;;;;;;;;;5014147;28;20198;-70
2023/06/10 09:50:34;;;;;;;6.25;4.40;;;;;;;;;;5017967;28;20197;-70
2023/06/10 09:53:02;;;;;;;6.20;3.75;;;;;;;;;;5022282;28;20194;-71
2023/06/10 09:55:28;;;;;;;8.23;4.40;;;;;;;;;;5037556;28;20317;-70
2023/06/10 09:57:54;;;;;;;7.05;4.43;;;;;;;;;;5023463;28;20364;-70
2023/06/10 10:00:21;;;;;;;9.25;4.70;;;;;;;;;;5028278;28;20651;-71
2023/06/10 10:02:51;;;;;;;7.78;4.38;;;;;;;;;;5026247;28;20343;-70
2023/06/10 10:05:19;;;;;;;8.27;4.43;;;;;;;;;;5031093;28;20207;-70
2023/06/10 10:07:45;;;;;;;7.10;4.38;;;;;;;;;;5033697;28;20193;-70
2023/06/10 10:10:12;;;;;;;5.63;4.03;;;;;;;;;;5032319;28;20557;-70
2023/06/10 10:12:39;;;;;;;9.32;4.20;;;;;;;;;;5024644;28;20705;-70
2023/06/10 10:15:09;;;;;;;7.05;4.53;;;;;;;;;;5014920;28;20301;-69
2023/06/10 10:17:44;;;;;;;8.38;4.63;;;;;;;;;;5033678;28;20186;-70
2023/06/10 10:20:13;;;;;;;7.97;4.10;;;;;;;;;;5033714;28;20193;-70
2023/06/10 10:22:40;;;;;;;7.85;4.47;;;;;;;;;;5031649;28;20197;-70
2023/06/10 10:25:16;;;;;;;8.88;4.43;;;;;;;;;;5022739;28;20288;-70
2023/06/10 10:27:51;;;;;;;6.95;4.43;;;;;;;;;;5026540;28;20252;-70
2023/06/10 10:30:20;;;;;;;6.03;4.03;;;;;;;;;;5034843;28;20216;-71
2023/06/10 10:33:04;;;;;;;8.55;3.90;;;;;;;;;;5032196;28;20197;-72
2023/06/10 10:35:32;;;;;;;9.93;4.50;;;;;;;;;;5030899;28;20240;-70
2023/06/10 10:37:58;;;;;;;6.90;4.22;;;;;;;;;;5030180;28;20194;-71
2023/06/10 10:40:25;;;;;;;8.43;4.28;;;;;;;;;;5030459;28;20732;-70
2023/06/10 10:42:52;;;;;;;7.63;4.95;;;;;;;;;;5039773;28;20205;-70
2023/06/10 10:45:18;;;;;;;9.52;4.90;;;;;;;;;;5025388;28;20225;-70
2023/06/10 10:47:46;;;;;;;12.57;5.13;;;;;;;;;;5021609;28;20194;-70
2023/06/10 10:50:19;;;;;;;5.60;4.22;;;;;;;;;;5018389;28;20182;-72
2023/06/10 10:52:58;;;;;;;5.40;4.03;;;;;;;;;;5024724;28;20694;-72
2023/06/10 10:55:24;;;;;;;9.52;4.93;;;;;;;;;;5027606;28;20407;-71
2023/06/10 10:57:56;;;;;;;8.95;4.20;;;;;;;;;;5018568;28;20194;-70
2023/06/10 11:00:33;;;;;;;5.88;4.32;;;;;;;;;;5019364;28;20221;-70
2023/06/10 11:03:02;;;;;;;8.40;4.65;;;;;;;;;;5020241;28;20522;-70
2023/06/10 11:05:47;;;;;;;8.52;4.68;;;;;;;;;;5027220;28;20218;-70
2023/06/10 11:08:13;;;;;;;6.43;3.83;;;;;;;;;;5011058;28;20244;-71
2023/06/10 11:10:52;;;;;;;7.80;4.35;;;;;;;;;;5013755;28;20194;-70
2023/06/10 11:13:20;;;;;;;7.60;4.07;;;;;;;;;;5023878;28;20522;-70
2023/06/10 11:15:47;;;;;;;8.40;4.28;;;;;;;;;;5028412;28;20185;-71
2023/06/10 11:18:22;;;;;;;6.55;4.25;;;;;;;;;;5023855;28;20580;-70
2023/06/10 11:20:52;;;;;;;8.02;4.15;;;;;;;;;;4673980;28;10000637;-71
2023/06/10 11:23:27;;;;;;;8.77;4.53;;;;;;;;;;5022298;28;20909;-69
2023/06/10 11:26:27;;;;;;;6.65;3.90;;;;;;;;;;5017186;28;20198;-69
2023/06/10 11:28:52;;;;;;;5.32;3.58;;;;;;;;;;5023355;28;20190;-69
2023/06/10 11:31:20;;;;;;;9.00;4.65;;;;;;;;;;5023347;28;20767;-70
2023/06/10 11:33:46;;;;;;;8.35;4.00;;;;;;;;;;5023476;28;20187;-70
2023/06/10 11:36:12;;;;;;;8.23;4.07;;;;;;;;;;5017093;28;20190;-70
2023/06/10 11:38:38;;;;;;;10.93;4.20;;;;;;;;;;5014679;28;20193;-70
2023/06/10 11:41:04;;;;;;;5.13;3.80;;;;;;;;;;5021776;28;20527;-71
2023/06/10 11:43:30;;;;;;;5.18;3.80;;;;;;;;;;5023387;28;20182;-71
2023/06/10 11:45:56;;;;;;;6.55;3.78;;;;;;;;;;5017149;28;20194;-72
2023/06/10 11:48:21;;;;;;;5.50;3.42;;;;;;;;;;5031406;28;20735;-71
2023/06/10 11:50:47;;;;;;;5.22;3.42;;;;;;;;;;5019460;28;20188;-72
2023/06/10 11:53:12;;;;;;;8.20;3.58;;;;;;;;;;5032123;28;20236;-71
2023/06/10 11:55:48;;;;;;;5.38;3.65;;;;;;;;;;5030977;28;20204;-71
2023/06/10 11:58:15;;;;;;;4.72;3.20;;;;;;;;;;5027177;28;20209;-71
2023/06/10 12:00:51;;;;;;;5.60;3.33;;;;;;;;;;5027960;28;20271;-73
2023/06/10 12:03:17;;;;;;;6.90;3.35;;;;;;;;;;5018535;28;20227;-71
2023/06/10 12:06:00;;;;;;;4.95;3.50;;;;;;;;;;5028941;28;20220;-71
2023/06/10 12:08:26;;;;;;;5.10;3.72;;;;;;;;;;5018123;28;20294;-71
2023/06/10 12:10:51;;;;;;;6.30;4.18;;;;;;;;;;5040924;28;20579;-71
2023/06/10 12:13:18;;;;;;;5.97;3.83;;;;;;;;;;5025943;28;20186;-71
2023/06/10 12:15:44;;;;;;;5.68;4.00;;;;;;;;;;5025244;28;20239;-70
2023/06/10 12:18:17;;;;;;;5.45;3.63;;;;;;;;;;5030961;28;20595;-72
2023/06/10 12:20:42;;;;;;;13.45;3.80;;;;;;;;;;5023502;28;20194;-71
2023/06/10 12:23:11;;;;;;;4.70;3.80;;;;;;;;;;5025233;28;20205;-72
2023/06/10 12:25:38;;;;;;;4.95;3.80;;;;;;;;;;5015009;28;20690;-72
2023/06/10 12:28:04;;;;;;;8.35;4.43;;;;;;;;;;5026042;28;20202;-71
2023/06/10 12:30:29;;;;;;;7.18;4.13;;;;;;;;;;5014149;28;20198;-71
2023/06/10 12:32:55;;;;;;;12.15;4.03;;;;;;;;;;5021252;28;20249;-70
2023/06/10 12:35:24;;;;;;;8.93;4.05;;;;;;;;;;5027739;28;20186;-73
2023/06/10 12:38:06;;;;;;;4.25;3.60;;;;;;;;;;5030227;28;20193;-71
2023/06/10 12:40:33;;;;;;;5.60;3.30;;;;;;;;;;5019520;28;20219;-70
2023/06/10 12:43:00;;;;;;;5.63;3.90;;;;;;;;;;5028823;28;20665;-71
2023/06/10 12:45:33;;;;;;;6.43;3.63;;;;;;;;;;5024801;28;20209;-71
2023/06/10 12:48:17;;;;;;;5.75;3.80;;;;;;;;;;5029682;28;20582;-70
2023/06/10 12:50:43;;;;;;;5.43;4.28;;;;;;;;;;5016265;28;20651;-71
2023/06/10 12:53:11;;;;;;;6.65;4.40;;;;;;;;;;5021832;28;20240;-71
2023/06/10 12:55:37;;;;;;;7.65;3.80;;;;;;;;;;5027976;28;20269;-70
2023/06/10 12:58:03;;;;;;;5.18;4.22;;;;;;;;;;5016008;28;20210;-71
2023/06/10 13:00:29;;;;;;;7.78;4.05;;;;;;;;;;5028361;28;20201;-70
2023/06/10 13:03:00;;;;;;;7.05;3.63;;;;;;;;;;5026058;28;20195;-69
2023/06/10 13:05:26;;;;;;;8.32;4.50;;;;;;;;;;5038974;28;20619;-70
2023/06/10 13:07:51;;;;;;;6.18;3.97;;;;;;;;;;5032757;28;20189;-70
2023/06/10 13:10:17;;;;;;;7.32;3.75;;;;;;;;;;5023134;28;20201;-70
2023/06/10 13:12:43;;;;;;;6.45;4.07;;;;;;;;;;5032624;28;20194;-70
2023/06/10 13:15:09;;;;;;;5.68;4.05;;;;;;;;;;5028762;28;20183;-70
2023/06/10 13:17:35;;;;;;;8.43;4.20;;;;;;;;;;5023679;28;20212;-71
2023/06/10 13:20:05;;;;;;;6.60;3.90;;;;;;;;;;5034399;28;20251;-70
2023/06/10 13:22:32;;;;;;;5.43;3.80;;;;;;;;;;5030816;28;20194;-70
2023/06/10 13:25:07;;;;;;;8.25;3.95;;;;;;;;;;5025169;28;20237;-71
2023/06/10 13:27:33;;;;;;;7.30;4.05;;;;;;;;;;5035360;28;20190;-71
2023/06/10 13:29:59;;;;;;;8.07;3.88;;;;;;;;;;5024055;28;20265;-71
2023/06/10 13:32:24;;;;;;;6.55;4.22;;;;;;;;;;5023498;28;20194;-70
2023/06/10 13:34:50;;;;;;;6.20;4.25;;;;;;;;;;5020953;28;20189;-71
2023/06/10 13:37:19;;;;;;;4.40;4.00;;;;;;;;;;5014629;28;20198;-71
2023/06/10 13:39:46;;;;;;;6.18;3.85;;;;;;;;;;5028350;28;20268;-71
2023/06/10 13:42:12;;;;;;;5.50;3.78;;;;;;;;;;5033147;28;20190;-70
2023/06/10 13:44:37;;;;;;;6.70;4.15;;;;;;;;;;5020603;28;20214;-70
2023/06/10 13:47:03;;;;;;;5.40;3.72;;;;;;;;;;5020851;28;20193;-71
2023/06/10 13:49:29;;;;;;;6.13;3.90;;;;;;;;;;5017634;28;20198;-70
2023/06/10 13:51:54;;;;;;;5.53;4.03;;;;;;;;;;5015996;28;20195;-71
2023/06/10 13:54:21;;;;;;;6.60;4.43;;;;;;;;;;5006761;28;20682;-71
2023/06/10 13:56:46;;;;;;;6.78;3.90;;;;;;;;;;5019408;28;20607;-70
2023/06/10 13:59:12;;;;;;;5.07;3.63;;;;;;;;;;5024827;28;20198;-71
2023/06/10 14:01:37;;;;;;;8.55;4.25;;;;;;;;;;5035380;28;20293;-71
2023/06/10 14:04:03;;;;;;;8.63;4.00;;;;;;;;;;5022850;28;20224;-71
2023/06/10 14:06:28;;;;;;;5.93;4.60;;;;;;;;;;5023986;28;20232;-71
2023/06/10 14:08:54;;;;;;;6.20;4.22;;;;;;;;;;5020360;28;20510;-71
2023/06/10 14:11:20;;;;;;;4.53;4.13;;;;;;;;;;5018896;28;20201;-71
2023/06/10 14:13:46;;;;;;;5.80;4.30;;;;;;;;;;5017106;28;20864;-71
2023/06/10 14:16:11;;;;;;;7.40;4.03;;;;;;;;;;5023255;28;20212;-70
2023/06/10 14:18:37;;;;;;;5.57;3.85;;;;;;;;;;5015868;28;20281;-70
2023/06/10 14:21:02;;;;;;;7.22;4.50;;;;;;;;;;5030358;28;20198;-70
2023/06/10 14:23:27;;;;;;;6.07;3.65;;;;;;;;;;5015716;28;20202;-71
2023/06/10 14:25:53;;;;;;;5.00;4.18;;;;;;;;;;5008460;28;20240;-71
2023/06/10 14:28:18;;;;;;;4.95;3.88;;;;;;;;;;5023412;28;20653;-70
2023/06/10 14:30:43;;;;;;;6.93;3.97;;;;;;;;;;5017676;28;20206;-70
2023/06/10 14:33:09;;;;;;;7.35;4.60;;;;;;;;;;5028278;28;20186;-72
2023/06/10 14:35:34;;;;;;;6.60;4.32;;;;;;;;;;5022345;28;20260;-71
2023/06/10 14:38:00;;;;;;;6.28;4.90;;;;;;;;;;5007577;28;20241;-70